createdAt,value
2022-11-20T00:01:20.867Z,97559.63
2022-11-20T00:03:48.100Z,97559.50
2022-11-20T00:06:17.671Z,97557.59
2022-11-20T00:08:45.147Z,97547.81
2022-11-20T00:11:17.419Z,97547.84
2022-11-20T00:13:48.338Z,97544.88
2022-11-20T00:16:17.264Z,97544.47
2022-11-20T00:18:45.004Z,97545.69
2022-11-20T00:21:23.589Z,97539.06
2022-11-20T00:23:51.268Z,97534.94
2022-11-20T00:26:20.207Z,97544.41
2022-11-20T00:28:55.464Z,97556.97
2022-11-20T00:31:22.762Z,97555.88
2022-11-20T00:33:49.710Z,97568.00
2022-11-20T00:36:18.999Z,97581.41
2022-11-20T00:38:47.205Z,97579.78
2022-11-20T00:41:17.169Z,97579.25
2022-11-20T00:43:44.375Z,97586.34
2022-11-20T00:46:14.693Z,97597.59
2022-11-20T00:48:41.982Z,97602.97
2022-11-20T00:51:09.254Z,97607.84
2022-11-20T00:53:36.112Z,97614.28
2022-11-20T00:56:03.823Z,97607.84
2022-11-20T00:58:34.189Z,97612.53
2022-11-20T01:01:26.980Z,97597.44
2022-11-20T01:03:55.395Z,97602.13
2022-11-20T01:06:25.924Z,97601.50
2022-11-20T01:08:57.036Z,97611.59
2022-11-20T01:11:26.349Z,97613.94
2022-11-20T01:13:54.340Z,97619.69
2022-11-20T01:16:26.486Z,97618.78
2022-11-20T01:18:59.149Z,97618.94
2022-11-20T01:21:29.160Z,97625.50
2022-11-20T01:23:56.120Z,97618.09
2022-11-20T01:26:25.562Z,97618.13
2022-11-20T01:28:59.383Z,97614.63
2022-11-20T01:31:30.152Z,97616.06
2022-11-20T01:33:59.052Z,97619.88
2022-11-20T01:36:27.946Z,97607.69
2022-11-20T01:38:59.109Z,97615.56
2022-11-20T01:41:46.218Z,97615.03
2022-11-20T01:44:16.149Z,97610.66
2022-11-20T01:46:58.044Z,97610.44
2022-11-20T01:49:42.993Z,97606.81
2022-11-20T01:52:18.627Z,97597.47
2022-11-20T01:54:51.728Z,97596.47
2022-11-20T01:57:19.549Z,97596.75
2022-11-20T01:59:51.479Z,97592.00
2022-11-20T02:02:18.422Z,97587.59
2022-11-20T02:04:45.699Z,97589.44
2022-11-20T02:07:13.118Z,97588.06
2022-11-20T02:09:40.986Z,97585.50
2022-11-20T02:12:27.936Z,97591.81
2022-11-20T02:14:54.824Z,97597.78
2022-11-20T02:17:21.553Z,97592.00
2022-11-20T02:19:50.491Z,97590.03
2022-11-20T02:22:30.451Z,97603.62
2022-11-20T02:24:58.488Z,97606.72
2022-11-20T02:27:25.373Z,97614.28
2022-11-20T02:29:55.281Z,97616.09
2022-11-20T02:32:34.081Z,97606.19
2022-11-20T02:35:10.529Z,97601.81
2022-11-20T02:37:41.073Z,97595.47
2022-11-20T02:40:08.764Z,97594.16
2022-11-20T02:42:36.763Z,97587.56
2022-11-20T02:45:04.729Z,97588.78
2022-11-20T02:47:31.787Z,97586.66
2022-11-20T02:49:58.828Z,97589.78
2022-11-20T02:52:26.305Z,97591.97
2022-11-20T02:54:53.297Z,97592.50
2022-11-20T02:57:20.182Z,97592.06
2022-11-20T02:59:47.050Z,97595.56
2022-11-20T03:02:13.932Z,97590.28
2022-11-20T03:04:40.767Z,97585.25
2022-11-20T03:07:08.551Z,97598.94
2022-11-20T03:09:35.454Z,97601.97
2022-11-20T03:12:02.164Z,97592.59
2022-11-20T03:14:29.421Z,97590.94
2022-11-20T03:16:57.077Z,97586.44
2022-11-20T03:19:24.288Z,97578.19
2022-11-20T03:21:51.147Z,97575.88
2022-11-20T03:24:17.841Z,97563.22
2022-11-20T03:26:44.689Z,97563.41
2022-11-20T03:29:11.328Z,97571.16
2022-11-20T03:31:43.437Z,97554.41
2022-11-20T03:34:11.890Z,97546.66
2022-11-20T03:36:40.202Z,97544.91
2022-11-20T03:39:07.638Z,97542.78
2022-11-20T03:41:38.810Z,97542.72
2022-11-20T03:44:07.899Z,97557.94
2022-11-20T03:46:34.896Z,97551.72
2022-11-20T03:49:07.744Z,97542.66
2022-11-20T03:51:36.911Z,97545.75
2022-11-20T03:54:06.797Z,97545.06
2022-11-20T03:56:35.831Z,97550.44
2022-11-20T03:59:04.705Z,97558.03
2022-11-20T04:01:34.169Z,97554.00
2022-11-20T04:04:01.625Z,97553.97
2022-11-20T04:06:36.563Z,97547.84
2022-11-20T04:09:03.564Z,97546.41
2022-11-20T04:11:32.353Z,97539.63
2022-11-20T04:14:01.423Z,97543.88
2022-11-20T04:16:31.292Z,97547.31
2022-11-20T04:19:00.306Z,97541.50
2022-11-20T04:21:27.586Z,97538.19
2022-11-20T04:23:55.064Z,97527.62
2022-11-20T04:26:23.376Z,97531.91
2022-11-20T04:28:50.550Z,97532.41
2022-11-20T04:31:19.562Z,97536.72
2022-11-20T04:33:46.599Z,97530.09
2022-11-20T04:36:15.891Z,97529.69
2022-11-20T04:38:45.151Z,97526.75
2022-11-20T04:41:19.656Z,97532.59
2022-11-20T04:43:53.548Z,97534.62
2022-11-20T04:46:21.817Z,97537.97
2022-11-20T04:48:49.705Z,97533.97
2022-11-20T04:51:16.590Z,97527.88
2022-11-20T04:53:43.538Z,97534.22
2022-11-20T04:56:12.750Z,97532.09
2022-11-20T04:58:40.267Z,97535.97
2022-11-20T05:01:10.189Z,97546.22
2022-11-20T05:03:41.991Z,97558.28
2022-11-20T05:06:10.444Z,97553.72
2022-11-20T05:08:37.300Z,97546.97
2022-11-20T05:11:06.340Z,97544.28
2022-11-20T05:13:33.299Z,97539.91
2022-11-20T05:16:09.471Z,97536.09
2022-11-20T05:18:37.574Z,97536.94
2022-11-20T05:21:04.683Z,97524.78
2022-11-20T05:23:32.891Z,97528.38
2022-11-20T05:26:00.088Z,97528.06
2022-11-20T05:28:28.585Z,97532.69
2022-11-20T05:30:55.531Z,97532.19
2022-11-20T05:33:22.776Z,97530.00
2022-11-20T05:35:50.082Z,97528.41
2022-11-20T05:38:17.321Z,97530.84
2022-11-20T05:40:44.259Z,97528.34
2022-11-20T05:43:11.137Z,97532.78
2022-11-20T05:45:38.232Z,97528.84
2022-11-20T05:48:05.288Z,97533.97
2022-11-20T05:50:35.253Z,97532.84
2022-11-20T05:53:02.137Z,97539.56
2022-11-20T05:55:29.233Z,97542.03
2022-11-20T05:57:56.357Z,97548.28
2022-11-20T06:00:23.822Z,97551.50
2022-11-20T06:02:50.787Z,97550.88
2022-11-20T06:05:17.720Z,97549.91
2022-11-20T06:07:44.613Z,97549.47
2022-11-20T06:10:11.559Z,97545.72
2022-11-20T06:12:38.427Z,97554.69
2022-11-20T06:15:06.875Z,97553.91
2022-11-20T06:17:33.717Z,97546.50
2022-11-20T06:20:00.641Z,97567.00
2022-11-20T06:22:27.484Z,97570.37
2022-11-20T06:24:54.355Z,97576.81
2022-11-20T06:27:21.193Z,97584.09
2022-11-20T06:29:53.757Z,97591.66
2022-11-20T06:32:20.644Z,97593.28
2022-11-20T06:34:47.536Z,97596.69
2022-11-20T06:37:14.441Z,97596.31
2022-11-20T06:39:48.422Z,97603.84
2022-11-20T06:42:15.312Z,97609.31
2022-11-20T06:44:42.177Z,97610.06
2022-11-20T06:47:09.015Z,97616.81
2022-11-20T06:49:41.694Z,97612.28
2022-11-20T06:52:08.530Z,97601.38
2022-11-20T06:54:35.186Z,97609.94
2022-11-20T06:57:02.077Z,97607.66
2022-11-20T06:59:28.938Z,97610.38
2022-11-20T07:01:55.808Z,97600.94
2022-11-20T07:04:22.678Z,97600.00
2022-11-20T07:06:49.624Z,97598.00
2022-11-20T07:09:17.552Z,97599.28
2022-11-20T07:11:44.400Z,97588.47
2022-11-20T07:14:11.565Z,97582.16
2022-11-20T07:16:38.455Z,97588.78
2022-11-20T07:19:05.356Z,97579.47
2022-11-20T07:21:32.186Z,97589.19
2022-11-20T07:23:58.843Z,97589.81
2022-11-20T07:26:25.722Z,97596.91
2022-11-20T07:28:53.558Z,97596.09
2022-11-20T07:31:20.434Z,97592.97
2022-11-20T07:33:47.937Z,97586.88
2022-11-20T07:36:14.817Z,97585.91
2022-11-20T07:38:41.707Z,97588.81
2022-11-20T07:41:08.543Z,97587.59
2022-11-20T07:43:40.828Z,97578.84
2022-11-20T07:46:08.257Z,97584.81
2022-11-20T07:48:35.171Z,97585.72
2022-11-20T07:51:02.145Z,97582.22
2022-11-20T07:53:29.003Z,97588.25
2022-11-20T07:55:55.890Z,97592.37
2022-11-20T07:58:23.097Z,97583.47
2022-11-20T08:00:50.105Z,97590.19
2022-11-20T08:03:21.661Z,97600.91
2022-11-20T08:05:51.452Z,97594.56
2022-11-20T08:08:18.287Z,97599.72
2022-11-20T08:10:44.967Z,97601.81
2022-11-20T08:13:30.329Z,97601.56
2022-11-20T08:15:57.168Z,97593.19
2022-11-20T08:18:31.356Z,97596.25
2022-11-20T08:21:02.514Z,97599.16
2022-11-20T08:23:29.379Z,97601.81
2022-11-20T08:25:56.227Z,97596.62
2022-11-20T08:28:23.141Z,97600.87
2022-11-20T08:30:51.379Z,97600.87
2022-11-20T08:33:19.237Z,97597.06
2022-11-20T08:35:46.314Z,97603.81
2022-11-20T08:38:13.189Z,97595.66
2022-11-20T08:40:41.088Z,97609.81
2022-11-20T08:43:07.960Z,97610.84
2022-11-20T08:45:35.532Z,97608.56
2022-11-20T08:48:03.603Z,97608.56
2022-11-20T08:50:33.488Z,97622.47
2022-11-20T08:53:05.684Z,97614.78
2022-11-20T08:55:32.649Z,97621.97
2022-11-20T08:57:59.496Z,97620.47
2022-11-20T09:00:28.449Z,97626.16
2022-11-20T09:02:55.520Z,97623.53
2022-11-20T09:05:22.399Z,97633.50
2022-11-20T09:07:49.258Z,97636.78
2022-11-20T09:10:23.974Z,97644.25
2022-11-20T09:12:53.089Z,97648.09
2022-11-20T09:15:20.770Z,97651.72
2022-11-20T09:17:54.676Z,97654.37
2022-11-20T09:20:22.033Z,97651.09
2022-11-20T09:22:49.384Z,97648.53
2022-11-20T09:25:16.501Z,97653.13
2022-11-20T09:27:45.216Z,97651.09
2022-11-20T09:30:13.050Z,97650.94
2022-11-20T09:32:40.658Z,97648.13
2022-11-20T09:35:07.970Z,97654.19
2022-11-20T09:37:34.918Z,97655.22
2022-11-20T09:40:02.025Z,97663.81
2022-11-20T09:42:46.815Z,97657.91
2022-11-20T09:45:23.711Z,97653.87
2022-11-20T09:48:12.233Z,97660.25
2022-11-20T09:50:49.791Z,97656.53
2022-11-20T09:53:22.491Z,97660.56
2022-11-20T09:55:49.782Z,97652.69
2022-11-20T09:58:41.408Z,97653.63
2022-11-20T10:01:19.620Z,97647.78
2022-11-20T10:03:57.776Z,97640.66
2022-11-20T10:06:31.701Z,97635.81
2022-11-20T10:09:13.680Z,97637.25
2022-11-20T10:12:03.285Z,97635.59
2022-11-20T10:15:12.455Z,97624.63
2022-11-20T10:18:07.232Z,97622.25
2022-11-20T10:21:17.703Z,97618.22
2022-11-20T10:24:00.507Z,97619.38
2022-11-20T10:26:32.929Z,97620.75
2022-11-20T10:29:20.200Z,97620.56
2022-11-20T10:31:50.927Z,97615.22
2022-11-20T10:34:23.476Z,97606.59
2022-11-20T10:36:56.960Z,97604.28
2022-11-20T10:39:35.449Z,97599.25
2022-11-20T10:42:02.789Z,97605.78
2022-11-20T10:44:53.898Z,97611.59
2022-11-20T10:47:23.372Z,97603.22
2022-11-20T10:49:54.937Z,97603.38
2022-11-20T10:52:44.188Z,97603.88
2022-11-20T10:55:37.327Z,97605.69
2022-11-20T10:58:35.124Z,97610.50
2022-11-20T11:01:15.940Z,97619.03
2022-11-20T11:03:44.555Z,97616.91
2022-11-20T11:06:34.269Z,97614.19
2022-11-20T11:09:10.139Z,97611.25
2022-11-20T11:11:37.245Z,97613.63
2022-11-20T11:14:15.798Z,97618.25
2022-11-20T11:16:59.035Z,97618.97
2022-11-20T11:19:26.304Z,97620.91
2022-11-20T11:21:56.034Z,97623.03
2022-11-20T11:24:42.610Z,97628.72
2022-11-20T11:27:18.976Z,97624.16
2022-11-20T11:29:47.057Z,97626.84
2022-11-20T11:32:21.756Z,97622.00
2022-11-20T11:35:28.160Z,97622.44
2022-11-20T11:38:04.060Z,97625.78
2022-11-20T11:40:33.668Z,97620.84
2022-11-20T11:43:03.955Z,97614.25
2022-11-20T11:45:30.919Z,97611.38
2022-11-20T11:48:04.368Z,97608.37
2022-11-20T11:50:32.215Z,97595.50
2022-11-20T11:53:14.462Z,97600.28
2022-11-20T11:55:56.022Z,97592.78
2022-11-20T11:58:36.127Z,97595.09
2022-11-20T12:01:30.613Z,97577.75
2022-11-20T12:04:05.952Z,97578.25
2022-11-20T12:06:34.364Z,97577.00
2022-11-20T12:09:04.589Z,97568.97
2022-11-20T12:11:48.267Z,97582.22
2022-11-20T12:14:25.179Z,97575.75
2022-11-20T12:16:53.952Z,97579.06
2022-11-20T12:19:21.420Z,97582.41
2022-11-20T12:22:09.467Z,97587.28
2022-11-20T12:24:36.245Z,97600.16
2022-11-20T12:27:03.038Z,97588.56
2022-11-20T12:29:47.733Z,97586.25
2022-11-20T12:32:17.586Z,97598.00
2022-11-20T12:35:01.588Z,97594.25
2022-11-20T12:37:28.401Z,97595.09
2022-11-20T12:40:00.158Z,97591.41
2022-11-20T12:43:08.780Z,97592.19
2022-11-20T12:45:58.028Z,97590.94
2022-11-20T12:48:45.006Z,97576.06
2022-11-20T12:51:31.762Z,97576.69
2022-11-20T12:54:13.775Z,97582.75
2022-11-20T12:56:51.490Z,97590.91
2022-11-20T12:59:30.197Z,97584.69
2022-11-20T13:02:02.653Z,97583.53
2022-11-20T13:04:35.495Z,97583.16
2022-11-20T13:07:04.425Z,97580.94
2022-11-20T13:09:31.417Z,97579.09
2022-11-20T13:12:06.673Z,97574.63
2022-11-20T13:14:41.895Z,97574.59
2022-11-20T13:17:18.346Z,97571.97
2022-11-20T13:19:52.715Z,97569.03
2022-11-20T13:22:29.485Z,97555.31
2022-11-20T13:24:56.764Z,97569.19
2022-11-20T13:27:24.427Z,97561.06
2022-11-20T13:30:16.391Z,97560.28
2022-11-20T13:32:50.444Z,97555.19
2022-11-20T13:35:29.645Z,97556.53
2022-11-20T13:38:09.620Z,97560.28
2022-11-20T13:40:56.207Z,97552.44
2022-11-20T13:43:38.243Z,97554.78
2022-11-20T13:46:10.045Z,97548.03
2022-11-20T13:48:43.334Z,97552.91
2022-11-20T13:51:31.959Z,97552.41
2022-11-20T13:54:18.935Z,97555.28
2022-11-20T13:56:51.619Z,97560.06
2022-11-20T13:59:30.066Z,97560.56
2022-11-20T14:01:57.044Z,97561.81
2022-11-20T14:04:44.808Z,97560.19
2022-11-20T14:07:12.041Z,97561.84
2022-11-20T14:09:40.096Z,97563.38
2022-11-20T14:12:20.998Z,97571.41
2022-11-20T14:14:53.555Z,97560.19
2022-11-20T14:17:23.708Z,97568.19
2022-11-20T14:19:54.238Z,97567.94
2022-11-20T14:22:28.089Z,97565.91
2022-11-20T14:25:08.109Z,97575.66
2022-11-20T14:27:38.191Z,97577.50
2022-11-20T14:30:05.889Z,97576.78
2022-11-20T14:32:33.135Z,97576.78
2022-11-20T14:35:04.463Z,97576.81
2022-11-20T14:37:34.966Z,97573.50
2022-11-20T14:40:01.926Z,97579.19
2022-11-20T14:42:29.685Z,97578.25
2022-11-20T14:44:58.997Z,97570.34
2022-11-20T14:47:31.308Z,97570.28
2022-11-20T14:49:59.222Z,97563.00
2022-11-20T14:52:28.582Z,97568.06
2022-11-20T14:54:57.464Z,97552.25
2022-11-20T14:57:35.716Z,97560.41
2022-11-20T15:00:05.480Z,97552.88
2022-11-20T15:02:32.941Z,97557.88
2022-11-20T15:05:02.803Z,97547.59
2022-11-20T15:07:33.151Z,97560.22
2022-11-20T15:10:12.505Z,97560.38
2022-11-20T15:12:52.076Z,97565.28
2022-11-20T15:15:36.915Z,97563.91
2022-11-20T15:18:04.819Z,97566.53
2022-11-20T15:20:33.556Z,97559.91
2022-11-20T15:23:00.465Z,97576.84
2022-11-20T15:25:27.479Z,97582.84
2022-11-20T15:27:56.869Z,97580.19
2022-11-20T15:30:26.010Z,97577.28
2022-11-20T15:32:52.916Z,97578.75
2022-11-20T15:37:55.082Z,97585.50
2022-11-20T15:40:21.944Z,97589.12
2022-11-20T15:43:08.186Z,97586.00
2022-11-20T15:45:46.706Z,97595.56
2022-11-20T15:48:22.519Z,97589.59
2022-11-20T15:50:55.527Z,97592.03
2022-11-20T15:53:22.513Z,97588.16
2022-11-20T15:55:49.763Z,97592.06
2022-11-20T15:58:18.155Z,97581.62
2022-11-20T16:03:20.815Z,97603.62
2022-11-20T16:05:48.087Z,97585.16
2022-11-20T16:10:56.570Z,97606.56
2022-11-20T16:13:42.049Z,97609.09
2022-11-20T16:16:21.907Z,97612.94
2022-11-20T16:30:46.149Z,97598.38
2022-11-20T16:33:15.213Z,97581.75
2022-11-20T16:38:12.393Z,97588.31
2022-11-20T16:43:54.331Z,97583.44
2022-11-20T16:46:23.408Z,97576.34
2022-11-20T16:48:55.327Z,97580.66
2022-11-20T16:51:23.061Z,97582.81
2022-11-20T16:53:51.183Z,97587.72
2022-11-20T16:56:20.213Z,97587.06
2022-11-20T16:58:48.821Z,97584.47
2022-11-20T17:01:18.698Z,97575.00
2022-11-20T17:03:46.829Z,97567.13
2022-11-20T17:06:15.894Z,97568.19
2022-11-20T17:08:43.048Z,97563.63
2022-11-20T17:11:14.466Z,97552.63
2022-11-20T17:13:41.463Z,97546.78
2022-11-20T17:16:13.408Z,97533.91
2022-11-20T17:18:41.178Z,97535.81
2022-11-20T17:21:08.419Z,97527.31
2022-11-20T17:23:36.934Z,97524.03
2022-11-20T17:26:05.734Z,97523.09
2022-11-20T17:28:33.143Z,97517.84
2022-11-20T17:31:04.493Z,97511.41
2022-11-20T17:33:31.531Z,97503.53
2022-11-20T17:35:58.362Z,97498.16
2022-11-20T17:38:25.091Z,97495.09
2022-11-20T17:40:52.013Z,97499.66
2022-11-20T17:43:19.103Z,97498.47
2022-11-20T17:45:46.603Z,97497.97
2022-11-20T17:48:13.546Z,97496.41
2022-11-20T17:50:40.457Z,97492.66
2022-11-20T17:53:07.755Z,97492.25
2022-11-20T17:55:55.946Z,97482.31
2022-11-20T17:58:23.099Z,97481.06
2022-11-20T18:00:49.998Z,97482.00
2022-11-20T18:03:16.694Z,97501.16
2022-11-20T18:05:46.349Z,97503.78
2022-11-20T18:08:13.246Z,97506.47
2022-11-20T18:10:40.277Z,97507.09
2022-11-20T18:13:07.137Z,97526.03
2022-11-20T18:15:34.028Z,97524.69
2022-11-20T18:18:00.878Z,97539.06
2022-11-20T18:20:30.286Z,97540.41
2022-11-20T18:22:59.016Z,97538.81
2022-11-20T18:25:25.885Z,97543.28
2022-11-20T18:27:52.775Z,97555.41
2022-11-20T18:30:19.740Z,97557.81
2022-11-20T18:32:46.616Z,97558.75
2022-11-20T18:35:13.502Z,97565.41
2022-11-20T18:37:41.009Z,97561.81
2022-11-20T18:40:08.674Z,97561.81
2022-11-20T18:42:55.786Z,97556.84
2022-11-20T18:45:22.631Z,97551.03
2022-11-20T18:47:49.422Z,97562.16
2022-11-20T18:50:17.327Z,97559.56
2022-11-20T18:52:48.070Z,97563.25
2022-11-20T18:55:15.243Z,97571.97
2022-11-20T18:57:42.176Z,97579.53
2022-11-20T19:00:10.378Z,97576.87
2022-11-20T19:02:42.043Z,97578.41
2022-11-20T19:05:14.610Z,97575.00
2022-11-20T19:07:41.761Z,97570.75
2022-11-20T19:10:09.001Z,97569.50
2022-11-20T19:12:35.951Z,97571.56
2022-11-20T19:15:03.315Z,97570.75
2022-11-20T19:17:30.161Z,97582.38
2022-11-20T19:19:56.866Z,97585.41
2022-11-20T19:22:23.741Z,97589.59
2022-11-20T19:24:50.732Z,97591.44
2022-11-20T19:27:17.586Z,97584.19
2022-11-20T19:29:45.297Z,97590.28
2022-11-20T19:32:12.161Z,97585.47
2022-11-20T19:34:38.812Z,97592.22
2022-11-20T19:37:05.692Z,97591.78
2022-11-20T19:39:32.590Z,97587.28
2022-11-20T19:41:59.447Z,97574.69
2022-11-20T19:44:26.115Z,97573.97
2022-11-20T19:46:53.072Z,97566.50
2022-11-20T19:49:20.095Z,97560.03
2022-11-20T19:51:48.886Z,97566.56
2022-11-20T19:54:16.935Z,97559.44
2022-11-20T19:56:45.543Z,97557.38
2022-11-20T19:59:13.155Z,97558.38
2022-11-20T20:01:40.107Z,97555.13
2022-11-20T20:04:07.302Z,97551.16
2022-11-20T20:06:35.966Z,97543.25
2022-11-20T20:09:10.408Z,97533.66
2022-11-20T20:11:37.570Z,97538.91
2022-11-20T20:14:06.413Z,97541.03
2022-11-20T20:16:34.464Z,97547.25
2022-11-20T20:19:02.940Z,97541.94
2022-11-20T20:21:31.008Z,97539.66
2022-11-20T20:23:59.560Z,97535.69
2022-11-20T20:26:30.261Z,97537.59
2022-11-20T20:28:57.159Z,97531.37
2022-11-20T20:31:26.582Z,97523.34
2022-11-20T20:33:53.913Z,97524.84
2022-11-20T20:36:22.180Z,97519.13
2022-11-20T20:38:52.637Z,97518.94
2022-11-20T20:41:20.331Z,97512.12
2022-11-20T20:44:05.898Z,97505.00
2022-11-20T20:46:32.925Z,97500.78
2022-11-20T20:48:59.986Z,97496.62
2022-11-20T20:51:26.840Z,97504.78
2022-11-20T20:53:54.045Z,97504.47
2022-11-20T20:56:21.468Z,97501.69
2022-11-20T20:58:48.370Z,97496.00
2022-11-20T21:01:17.509Z,97494.72
2022-11-20T21:03:44.643Z,97488.00
2022-11-20T21:06:12.503Z,97487.25
2022-11-20T21:08:41.129Z,97490.25
2022-11-20T21:11:16.314Z,97489.75
2022-11-20T21:13:44.865Z,97497.88
2022-11-20T21:16:13.305Z,97489.88
2022-11-20T21:18:40.178Z,97495.56
2022-11-20T21:21:27.165Z,97494.41
2022-11-20T21:23:54.231Z,97489.88
2022-11-20T21:26:21.827Z,97489.75
2022-11-20T21:28:50.198Z,97487.16
2022-11-20T21:31:22.685Z,97489.72
2022-11-20T21:33:51.101Z,97491.38
2022-11-20T21:36:20.032Z,97489.41
2022-11-20T21:38:47.787Z,97483.31
2022-11-20T21:41:15.351Z,97485.81
2022-11-20T21:43:45.724Z,97489.22
2022-11-20T21:46:14.497Z,97482.25
2022-11-20T21:48:42.559Z,97482.81
2022-11-20T21:51:14.640Z,97475.50
2022-11-20T21:53:42.036Z,97489.19
2022-11-20T21:56:10.196Z,97498.31
2022-11-20T21:58:38.239Z,97492.66
2022-11-20T22:01:38.175Z,97490.56
2022-11-20T22:04:05.501Z,97487.25
2022-11-20T22:06:33.983Z,97489.50
2022-11-20T22:09:03.023Z,97486.53
2022-11-20T22:11:30.104Z,97486.53
2022-11-20T22:14:15.623Z,97481.38
2022-11-20T22:16:42.516Z,97484.22
2022-11-20T22:19:09.553Z,97484.50
2022-11-20T22:21:39.812Z,97480.53
2022-11-20T22:24:06.787Z,97475.44
2022-11-20T22:26:40.227Z,97478.41
2022-11-20T22:29:14.076Z,97471.59
2022-11-20T22:31:40.998Z,97467.34
2022-11-20T22:34:11.378Z,97467.22
2022-11-20T22:36:38.737Z,97473.78
2022-11-20T22:39:06.080Z,97470.22
2022-11-20T22:41:33.700Z,97466.25
2022-11-20T22:44:06.680Z,97463.72
2022-11-20T22:46:35.084Z,97456.88
2022-11-20T22:49:04.172Z,97449.44
2022-11-20T22:51:33.757Z,97445.63
2022-11-20T22:54:01.250Z,97449.75
2022-11-20T22:56:28.128Z,97447.87
2022-11-20T22:58:55.264Z,97448.75
2022-11-20T23:01:24.138Z,97446.72
2022-11-20T23:03:53.171Z,97451.28
2022-11-20T23:06:20.976Z,97438.41
2022-11-20T23:08:48.542Z,97439.47
2022-11-20T23:11:17.650Z,97429.94
2022-11-20T23:13:45.200Z,97430.84
2022-11-20T23:16:16.323Z,97430.59
2022-11-20T23:18:44.251Z,97439.25
2022-11-20T23:21:12.236Z,97428.16
2022-11-20T23:23:39.450Z,97426.72
2022-11-20T23:26:09.403Z,97424.84
2022-11-20T23:28:36.741Z,97422.88
2022-11-20T23:31:04.507Z,97427.34
2022-11-20T23:33:31.686Z,97424.81
2022-11-20T23:35:58.557Z,97421.38
2022-11-20T23:38:25.448Z,97418.44
2022-11-20T23:40:52.813Z,97418.06
2022-11-20T23:43:21.535Z,97416.94
2022-11-20T23:45:50.319Z,97417.53
2022-11-20T23:48:17.415Z,97410.03
2022-11-20T23:50:44.563Z,97410.91
2022-11-20T23:53:12.227Z,97405.28
2022-11-20T23:55:39.102Z,97407.84
2022-11-20T23:58:06.002Z,97409.84
